WetterOnline ( https://www.wetteronline.de )

Wetter aktuell Nordrup

Aktuelles Wetter: Flakkebjerg (34m)

6-stündlich | Neueste Meldungen
Ortszeit Temperatur Wetter
Fr, 24.09. 2:00 13.1° C bewölkt
Do, 23.09. 20:00 12.5° C leicht bewölkt
Do, 23.09. 14:00 15.9° C bewölkt
Do, 23.09. 8:00 15.0° C wolkig
Do, 23.09. 2:00 15.1° C bewölkt
Mi, 22.09. 20:00 15.4° C fast wolkenlos
Mi, 22.09. 14:00 17.4° C wolkenlos
Mi, 22.09. 8:00 11.0° C bewölkt
Ortszeit Temperatur Wetter
Fr, 24.09. 7:00 11.9° C bewölkt
Fr, 24.09. 6:00 12.0° C wolkig
Fr, 24.09. 5:00 12.2° C bewölkt
Fr, 24.09. 4:00 12.6° C wolkig
Fr, 24.09. 3:00 12.9° C bewölkt
Fr, 24.09. 2:00 13.1° C bewölkt
Ortszeit Relative Feuchte Sichtweite
Fr, 24.09. 2:00 76% 17 km
Do, 23.09. 20:00 69% 16 km
Do, 23.09. 14:00 85% 40 km
Do, 23.09. 8:00 95% 14 km
Do, 23.09. 2:00 89% 18 km
Mi, 22.09. 20:00 85% 25 km
Mi, 22.09. 14:00 69% 25 km
Mi, 22.09. 8:00 100% 7 km
Ortszeit Relative Feuchte Sichtweite
Fr, 24.09. 7:00 71% 17 km
Fr, 24.09. 6:00 71% 19 km
Fr, 24.09. 5:00 72% 19 km
Fr, 24.09. 4:00 75% 15 km
Fr, 24.09. 3:00 77% 16 km
Fr, 24.09. 2:00 76% 17 km
Ortszeit Niederschlagsmenge Niederschlagsart
Fr, 24.09. 2:00 0.0 l/m2 in 3 Std. -
Do, 23.09. 20:00 5 l/m2 in 12 Std. Regenschauer
Do, 23.09. 14:00 1 l/m2 in 3 Std. Regenschauer
Do, 23.09. 8:00 0.1 l/m2 in 3 Std. Regenschauer
Do, 23.09. 2:00 0.0 l/m2 in 3 Std. -
Mi, 22.09. 20:00 0.0 l/m2 in 3 Std. -
Mi, 22.09. 14:00 0.0 l/m2 in 3 Std. -
Mi, 22.09. 8:00 0.0 l/m2 in 3 Std. -
Ortszeit Niederschlagsmenge Niederschlagsart
Fr, 24.09. 7:00 0.0 l/m2 in 1 Std. -
Fr, 24.09. 6:00 0.0 l/m2 in 1 Std. -
Fr, 24.09. 5:00 keine Meldung -
Fr, 24.09. 4:00 0.0 l/m2 in 1 Std. -
Fr, 24.09. 3:00 0.0 l/m2 in 1 Std. -
Fr, 24.09. 2:00 0.0 l/m2 in 1 Std. -
Ortszeit Stärke Spitze Richtung
km/h Bft. km/h Grad Sektor
Fr, 24.09. 2:00 37 5 - 300° NW
Do, 23.09. 20:00 41 6 81 280° W
Do, 23.09. 14:00 39 6 - 250° W
Do, 23.09. 8:00 17 3 - 220° SW
Do, 23.09. 2:00 14 3 - 240° SW
Mi, 22.09. 20:00 14 3 - 240° SW
Mi, 22.09. 14:00 18 3 - 240° SW
Mi, 22.09. 8:00 4 1 - 250° W
Ortszeit Stärke Spitze Richtung
km/h Bft. km/h Grad Sektor
Fr, 24.09. 7:00 31 5 - 290° W
Fr, 24.09. 6:00 32 5 - 290° W
Fr, 24.09. 5:00 35 5 56 300° NW
Fr, 24.09. 4:00 35 5 - 290° W
Fr, 24.09. 3:00 37 5 - 300° NW
Fr, 24.09. 2:00 37 5 - 300° NW
Ortszeit Untergrenze Bedeckung Gattung
total tief tief mittel hoch
Fr, 24.09. 2:00 690 m 7/8 7/8 - - -
Do, 23.09. 20:00 1050 m 3/8 3/8 - - -
Do, 23.09. 14:00 510 m 7/8 7/8 - - -
Do, 23.09. 8:00 450 m 7/8 3/8 - - -
Do, 23.09. 2:00 480 m 7/8 7/8 - - -
Mi, 22.09. 20:00 720 m 1/8 1/8 - - -
Mi, 22.09. 14:00 - 0/8 0/8 - - -
Mi, 22.09. 8:00 3000 m 7/8 7/8 - - -
Ortszeit Bedeckungsgrad in Achtel und Wolkenuntergrenze
Fr, 24.09. 7:00 3(780m) 7(960m)
Fr, 24.09. 6:00 1(810m) 5(960m)
Fr, 24.09. 5:00 1(780m) 7(900m)
Fr, 24.09. 4:00 1(720m) 5(1020m)
Fr, 24.09. 3:00 1(690m) 5(960m) 7(1170m)
Fr, 24.09. 2:00 1(690m) 5(930m) 7(1140m)
Ortszeit Luftdruck NN (hPa) Tendenz (hPa in 3 Std.)
Fr, 24.09. 2:00 1006 + 2,4
Do, 23.09. 20:00 1002 + 1,4
Do, 23.09. 14:00 1002 - 3,7
Do, 23.09. 8:00 1009 - 3,2
Do, 23.09. 2:00 1016 - 2,2
Mi, 22.09. 20:00 1020 - 1,0
Mi, 22.09. 14:00 1024 - 1,5
Mi, 22.09. 8:00 1026 + 0,3
Ortszeit Luftdruck NN (hPa) Tendenz (hPa in 3 Std.)
Fr, 24.09. 7:00 1008 + 1,1
Fr, 24.09. 6:00 1008 + 1,2
Fr, 24.09. 5:00 1007 + 1,3
Fr, 24.09. 4:00 1007 + 1,4
Fr, 24.09. 3:00 1006 + 1,8
Fr, 24.09. 2:00 1006 + 2,4
Ortszeit Schneehöhe (cm)
Fr, 24.09. 2:00 -
Do, 23.09. 20:00 -
Do, 23.09. 14:00 -
Do, 23.09. 8:00 -
Do, 23.09. 2:00 -
Mi, 22.09. 20:00 -
Mi, 22.09. 14:00 -
Mi, 22.09. 8:00 -
Ortszeit Schneehöhe (cm)
Fr, 24.09. 7:00 -
Fr, 24.09. 6:00 -
Fr, 24.09. 5:00 -
Fr, 24.09. 4:00 -
Fr, 24.09. 3:00 -
Fr, 24.09. 2:00 -
Link zu dieser Seite / Seite empfehlen

Das Wetter in ...